sensor_id;sensor_type;location;lat;lon;timestamp;P1;durP1;ratioP1;P2;durP2;ratioP2
39190;SDS011;24916;51.676;6.614;2023-07-31T00:02:21;1.33;;;0.83;;
39190;SDS011;24916;51.676;6.614;2023-07-31T00:04:46;0.60;;;0.60;;
39190;SDS011;24916;51.676;6.614;2023-07-31T00:07:12;1.10;;;0.80;;
39190;SDS011;24916;51.676;6.614;2023-07-31T00:09:37;1.58;;;0.93;;
39190;SDS011;24916;51.676;6.614;2023-07-31T00:12:02;0.93;;;0.60;;
39190;SDS011;24916;51.676;6.614;2023-07-31T00:14:28;2.55;;;1.10;;
39190;SDS011;24916;51.676;6.614;2023-07-31T00:16:53;2.35;;;1.30;;
39190;SDS011;24916;51.676;6.614;2023-07-31T00:19:18;2.63;;;1.33;;
39190;SDS011;24916;51.676;6.614;2023-07-31T00:21:44;2.83;;;1.23;;
39190;SDS011;24916;51.676;6.614;2023-07-31T00:24:09;2.60;;;1.40;;
39190;SDS011;24916;51.676;6.614;2023-07-31T00:26:34;4.67;;;2.30;;
39190;SDS011;24916;51.676;6.614;2023-07-31T00:28:59;5.77;;;2.70;;
39190;SDS011;24916;51.676;6.614;2023-07-31T00:31:24;9.53;;;3.40;;
39190;SDS011;24916;51.676;6.614;2023-07-31T00:33:50;9.20;;;3.70;;
39190;SDS011;24916;51.676;6.614;2023-07-31T00:36:15;9.70;;;3.70;;
39190;SDS011;24916;51.676;6.614;2023-07-31T00:38:40;14.07;;;4.00;;
39190;SDS011;24916;51.676;6.614;2023-07-31T00:41:05;9.43;;;4.40;;
39190;SDS011;24916;51.676;6.614;2023-07-31T00:43:30;19.23;;;4.53;;
39190;SDS011;24916;51.676;6.614;2023-07-31T00:45:56;11.43;;;4.67;;
39190;SDS011;24916;51.676;6.614;2023-07-31T00:48:21;14.85;;;5.55;;
39190;SDS011;24916;51.676;6.614;2023-07-31T00:50:46;17.85;;;6.28;;
39190;SDS011;24916;51.676;6.614;2023-07-31T00:53:12;14.38;;;6.00;;
39190;SDS011;24916;51.676;6.614;2023-07-31T00:55:37;14.00;;;5.65;;
39190;SDS011;24916;51.676;6.614;2023-07-31T00:58:03;15.43;;;5.95;;
39190;SDS011;24916;51.676;6.614;2023-07-31T01:00:28;16.97;;;6.00;;
39190;SDS011;24916;51.676;6.614;2023-07-31T01:02:53;21.60;;;6.07;;
39190;SDS011;24916;51.676;6.614;2023-07-31T01:05:19;15.73;;;6.20;;
39190;SDS011;24916;51.676;6.614;2023-07-31T01:07:52;18.25;;;6.78;;
39190;SDS011;24916;51.676;6.614;2023-07-31T01:10:20;22.30;;;7.80;;
39190;SDS011;24916;51.676;6.614;2023-07-31T01:12:46;15.18;;;5.32;;
39190;SDS011;24916;51.676;6.614;2023-07-31T01:15:12;16.08;;;5.30;;
39190;SDS011;24916;51.676;6.614;2023-07-31T01:17:40;12.95;;;5.53;;
39190;SDS011;24916;51.676;6.614;2023-07-31T01:20:08;19.60;;;5.43;;
39190;SDS011;24916;51.676;6.614;2023-07-31T01:28:11;11.73;;;4.70;;
39190;SDS011;24916;51.676;6.614;2023-07-31T01:30:43;16.13;;;5.30;;
39190;SDS011;24916;51.676;6.614;2023-07-31T01:33:09;15.18;;;4.57;;
39190;SDS011;24916;51.676;6.614;2023-07-31T01:35:34;19.50;;;5.65;;
39190;SDS011;24916;51.676;6.614;2023-07-31T01:38:00;18.45;;;4.70;;
39190;SDS011;24916;51.676;6.614;2023-07-31T01:40:25;12.18;;;4.07;;
39190;SDS011;24916;51.676;6.614;2023-07-31T01:42:50;12.23;;;4.13;;
39190;SDS011;24916;51.676;6.614;2023-07-31T01:45:15;14.40;;;4.40;;
39190;SDS011;24916;51.676;6.614;2023-07-31T01:47:41;9.73;;;3.80;;
39190;SDS011;24916;51.676;6.614;2023-07-31T01:50:06;14.70;;;5.68;;
39190;SDS011;24916;51.676;6.614;2023-07-31T01:52:31;14.50;;;4.88;;
39190;SDS011;24916;51.676;6.614;2023-07-31T01:54:56;13.32;;;4.10;;
39190;SDS011;24916;51.676;6.614;2023-07-31T01:57:22;12.65;;;4.00;;
39190;SDS011;24916;51.676;6.614;2023-07-31T01:59:47;15.93;;;4.70;;
39190;SDS011;24916;51.676;6.614;2023-07-31T02:02:12;13.13;;;4.07;;
39190;SDS011;24916;51.676;6.614;2023-07-31T02:04:38;11.15;;;4.28;;
39190;SDS011;24916;51.676;6.614;2023-07-31T02:07:04;9.88;;;4.10;;
39190;SDS011;24916;51.676;6.614;2023-07-31T02:09:29;9.38;;;3.70;;
39190;SDS011;24916;51.676;6.614;2023-07-31T02:11:55;9.68;;;4.22;;
39190;SDS011;24916;51.676;6.614;2023-07-31T02:14:20;10.88;;;3.83;;
39190;SDS011;24916;51.676;6.614;2023-07-31T02:16:45;12.57;;;3.95;;
39190;SDS011;24916;51.676;6.614;2023-07-31T02:19:10;17.10;;;3.60;;
39190;SDS011;24916;51.676;6.614;2023-07-31T02:21:36;9.95;;;3.72;;
39190;SDS011;24916;51.676;6.614;2023-07-31T02:24:01;20.13;;;4.93;;
39190;SDS011;24916;51.676;6.614;2023-07-31T02:26:26;9.23;;;3.87;;
39190;SDS011;24916;51.676;6.614;2023-07-31T02:28:51;7.60;;;3.47;;
39190;SDS011;24916;51.676;6.614;2023-07-31T02:31:16;15.60;;;3.93;;
39190;SDS011;24916;51.676;6.614;2023-07-31T02:33:42;9.50;;;3.78;;
39190;SDS011;24916;51.676;6.614;2023-07-31T02:36:07;10.85;;;3.75;;
39190;SDS011;24916;51.676;6.614;2023-07-31T02:38:32;18.13;;;4.77;;
39190;SDS011;24916;51.676;6.614;2023-07-31T02:40:57;10.65;;;4.00;;
39190;SDS011;24916;51.676;6.614;2023-07-31T02:43:23;13.00;;;3.53;;
39190;SDS011;24916;51.676;6.614;2023-07-31T02:45:51;12.93;;;4.10;;
39190;SDS011;24916;51.676;6.614;2023-07-31T02:48:16;9.85;;;3.88;;
39190;SDS011;24916;51.676;6.614;2023-07-31T02:50:42;10.80;;;3.78;;
39190;SDS011;24916;51.676;6.614;2023-07-31T02:53:07;8.33;;;3.83;;
39190;SDS011;24916;51.676;6.614;2023-07-31T02:55:32;13.50;;;3.90;;
39190;SDS011;24916;51.676;6.614;2023-07-31T02:57:57;14.00;;;4.60;;
39190;SDS011;24916;51.676;6.614;2023-07-31T03:00:23;12.75;;;3.88;;
39190;SDS011;24916;51.676;6.614;2023-07-31T03:02:49;12.27;;;4.13;;
39190;SDS011;24916;51.676;6.614;2023-07-31T03:05:14;12.55;;;3.85;;
39190;SDS011;24916;51.676;6.614;2023-07-31T03:07:39;13.40;;;4.30;;
39190;SDS011;24916;51.676;6.614;2023-07-31T03:10:04;8.93;;;4.23;;
39190;SDS011;24916;51.676;6.614;2023-07-31T03:12:30;10.88;;;4.40;;
39190;SDS011;24916;51.676;6.614;2023-07-31T03:14:55;14.05;;;3.67;;
39190;SDS011;24916;51.676;6.614;2023-07-31T03:17:20;13.57;;;4.53;;
39190;SDS011;24916;51.676;6.614;2023-07-31T03:19:46;12.82;;;3.97;;
39190;SDS011;24916;51.676;6.614;2023-07-31T03:22:11;10.48;;;4.18;;
39190;SDS011;24916;51.676;6.614;2023-07-31T03:24:36;8.87;;;4.03;;
39190;SDS011;24916;51.676;6.614;2023-07-31T03:27:01;9.27;;;3.42;;
39190;SDS011;24916;51.676;6.614;2023-07-31T03:29:26;13.80;;;4.22;;
39190;SDS011;24916;51.676;6.614;2023-07-31T03:31:52;14.40;;;4.28;;
39190;SDS011;24916;51.676;6.614;2023-07-31T03:34:17;11.63;;;3.95;;
39190;SDS011;24916;51.676;6.614;2023-07-31T03:36:42;14.13;;;3.58;;
39190;SDS011;24916;51.676;6.614;2023-07-31T03:39:08;13.63;;;4.47;;
39190;SDS011;24916;51.676;6.614;2023-07-31T03:41:33;9.93;;;3.92;;
39190;SDS011;24916;51.676;6.614;2023-07-31T03:43:58;11.60;;;4.13;;
39190;SDS011;24916;51.676;6.614;2023-07-31T03:46:24;14.90;;;4.05;;
39190;SDS011;24916;51.676;6.614;2023-07-31T03:48:49;14.82;;;4.05;;
39190;SDS011;24916;51.676;6.614;2023-07-31T03:51:14;15.75;;;5.03;;
39190;SDS011;24916;51.676;6.614;2023-07-31T03:53:40;9.85;;;4.35;;
39190;SDS011;24916;51.676;6.614;2023-07-31T03:56:05;14.73;;;4.30;;
39190;SDS011;24916;51.676;6.614;2023-07-31T03:58:30;10.30;;;4.28;;
39190;SDS011;24916;51.676;6.614;2023-07-31T04:00:55;21.48;;;4.45;;
39190;SDS011;24916;51.676;6.614;2023-07-31T04:03:21;12.13;;;4.05;;
39190;SDS011;24916;51.676;6.614;2023-07-31T04:05:46;12.57;;;4.40;;
39190;SDS011;24916;51.676;6.614;2023-07-31T04:08:11;9.25;;;3.90;;
39190;SDS011;24916;51.676;6.614;2023-07-31T04:10:36;9.85;;;4.00;;
39190;SDS011;24916;51.676;6.614;2023-07-31T04:13:01;13.52;;;3.75;;
39190;SDS011;24916;51.676;6.614;2023-07-31T04:15:27;10.35;;;4.07;;
39190;SDS011;24916;51.676;6.614;2023-07-31T04:17:52;11.37;;;4.37;;
39190;SDS011;24916;51.676;6.614;2023-07-31T04:20:17;11.40;;;4.07;;
39190;SDS011;24916;51.676;6.614;2023-07-31T04:22:42;13.63;;;3.72;;
39190;SDS011;24916;51.676;6.614;2023-07-31T04:25:08;12.07;;;4.20;;
39190;SDS011;24916;51.676;6.614;2023-07-31T04:27:33;16.98;;;4.25;;
39190;SDS011;24916;51.676;6.614;2023-07-31T04:29:58;12.07;;;3.78;;
39190;SDS011;24916;51.676;6.614;2023-07-31T04:32:23;13.10;;;4.43;;
39190;SDS011;24916;51.676;6.614;2023-07-31T04:34:49;12.80;;;4.25;;
39190;SDS011;24916;51.676;6.614;2023-07-31T04:37:14;12.32;;;6.03;;
39190;SDS011;24916;51.676;6.614;2023-07-31T04:39:39;10.10;;;3.97;;
39190;SDS011;24916;51.676;6.614;2023-07-31T04:42:04;23.33;;;10.27;;
39190;SDS011;24916;51.676;6.614;2023-07-31T04:44:29;15.00;;;5.28;;
39190;SDS011;24916;51.676;6.614;2023-07-31T04:46:55;11.63;;;4.50;;
39190;SDS011;24916;51.676;6.614;2023-07-31T04:49:20;7.95;;;3.80;;
39190;SDS011;24916;51.676;6.614;2023-07-31T04:51:45;16.70;;;4.93;;
39190;SDS011;24916;51.676;6.614;2023-07-31T04:54:10;9.32;;;3.38;;
39190;SDS011;24916;51.676;6.614;2023-07-31T04:56:37;17.92;;;3.75;;
39190;SDS011;24916;51.676;6.614;2023-07-31T04:59:02;8.02;;;3.47;;
39190;SDS011;24916;51.676;6.614;2023-07-31T05:01:28;11.63;;;3.93;;
39190;SDS011;24916;51.676;6.614;2023-07-31T05:03:53;9.30;;;3.45;;
39190;SDS011;24916;51.676;6.614;2023-07-31T05:06:18;21.35;;;6.13;;
39190;SDS011;24916;51.676;6.614;2023-07-31T05:08:45;26.95;;;6.45;;
39190;SDS011;24916;51.676;6.614;2023-07-31T05:11:10;12.98;;;5.45;;
39190;SDS011;24916;51.676;6.614;2023-07-31T05:13:35;15.88;;;5.43;;
39190;SDS011;24916;51.676;6.614;2023-07-31T05:16:01;13.95;;;6.00;;
39190;SDS011;24916;51.676;6.614;2023-07-31T05:18:26;12.73;;;4.97;;
39190;SDS011;24916;51.676;6.614;2023-07-31T05:20:51;11.98;;;4.10;;
39190;SDS011;24916;51.676;6.614;2023-07-31T05:23:16;13.43;;;3.97;;
39190;SDS011;24916;51.676;6.614;2023-07-31T05:25:42;12.27;;;4.35;;
39190;SDS011;24916;51.676;6.614;2023-07-31T05:28:07;14.32;;;5.18;;
39190;SDS011;24916;51.676;6.614;2023-07-31T05:30:32;9.32;;;3.78;;
39190;SDS011;24916;51.676;6.614;2023-07-31T05:32:57;10.70;;;3.90;;
39190;SDS011;24916;51.676;6.614;2023-07-31T05:35:22;15.50;;;4.13;;
39190;SDS011;24916;51.676;6.614;2023-07-31T05:37:48;14.82;;;3.83;;
39190;SDS011;24916;51.676;6.614;2023-07-31T05:40:13;9.23;;;3.80;;
39190;SDS011;24916;51.676;6.614;2023-07-31T05:42:39;9.73;;;3.50;;
39190;SDS011;24916;51.676;6.614;2023-07-31T05:45:05;16.38;;;3.85;;
39190;SDS011;24916;51.676;6.614;2023-07-31T05:47:30;11.77;;;3.95;;
39190;SDS011;24916;51.676;6.614;2023-07-31T05:49:56;13.93;;;6.85;;
39190;SDS011;24916;51.676;6.614;2023-07-31T05:52:21;11.85;;;3.95;;
39190;SDS011;24916;51.676;6.614;2023-07-31T05:54:46;14.13;;;7.70;;
39190;SDS011;24916;51.676;6.614;2023-07-31T05:57:11;9.27;;;3.80;;
39190;SDS011;24916;51.676;6.614;2023-07-31T05:59:37;14.80;;;3.90;;
39190;SDS011;24916;51.676;6.614;2023-07-31T06:02:02;10.07;;;3.85;;
39190;SDS011;24916;51.676;6.614;2023-07-31T06:04:27;14.88;;;5.13;;
39190;SDS011;24916;51.676;6.614;2023-07-31T06:06:53;10.13;;;4.10;;
39190;SDS011;24916;51.676;6.614;2023-07-31T06:09:18;9.48;;;3.40;;
39190;SDS011;24916;51.676;6.614;2023-07-31T06:11:45;10.23;;;3.17;;
39190;SDS011;24916;51.676;6.614;2023-07-31T06:14:10;7.18;;;3.35;;
39190;SDS011;24916;51.676;6.614;2023-07-31T06:16:35;12.70;;;4.90;;
39190;SDS011;24916;51.676;6.614;2023-07-31T06:19:01;12.00;;;3.58;;
39190;SDS011;24916;51.676;6.614;2023-07-31T06:21:26;10.82;;;4.18;;
39190;SDS011;24916;51.676;6.614;2023-07-31T06:23:51;14.20;;;4.68;;
39190;SDS011;24916;51.676;6.614;2023-07-31T06:26:16;10.67;;;3.20;;
39190;SDS011;24916;51.676;6.614;2023-07-31T06:28:42;8.50;;;3.55;;
39190;SDS011;24916;51.676;6.614;2023-07-31T06:31:07;13.50;;;3.40;;
39190;SDS011;24916;51.676;6.614;2023-07-31T06:33:32;9.93;;;3.67;;
39190;SDS011;24916;51.676;6.614;2023-07-31T06:35:57;7.05;;;3.22;;
39190;SDS011;24916;51.676;6.614;2023-07-31T06:38:24;11.10;;;4.20;;
39190;SDS011;24916;51.676;6.614;2023-07-31T06:40:49;7.72;;;4.00;;
39190;SDS011;24916;51.676;6.614;2023-07-31T06:43:14;8.07;;;4.22;;
39190;SDS011;24916;51.676;6.614;2023-07-31T06:45:39;10.17;;;3.90;;
39190;SDS011;24916;51.676;6.614;2023-07-31T06:48:05;8.07;;;3.97;;
39190;SDS011;24916;51.676;6.614;2023-07-31T06:50:31;6.28;;;3.83;;
39190;SDS011;24916;51.676;6.614;2023-07-31T06:52:56;8.25;;;4.05;;
39190;SDS011;24916;51.676;6.614;2023-07-31T06:55:21;7.50;;;3.67;;
39190;SDS011;24916;51.676;6.614;2023-07-31T06:57:48;9.32;;;5.90;;
39190;SDS011;24916;51.676;6.614;2023-07-31T07:00:13;9.95;;;3.70;;
39190;SDS011;24916;51.676;6.614;2023-07-31T07:02:39;7.65;;;3.65;;
39190;SDS011;24916;51.676;6.614;2023-07-31T07:05:04;8.50;;;3.45;;
39190;SDS011;24916;51.676;6.614;2023-07-31T07:07:29;10.93;;;4.40;;
39190;SDS011;24916;51.676;6.614;2023-07-31T07:09:55;5.97;;;3.78;;
39190;SDS011;24916;51.676;6.614;2023-07-31T07:12:20;6.27;;;3.23;;
39190;SDS011;24916;51.676;6.614;2023-07-31T07:14:45;6.47;;;4.45;;
39190;SDS011;24916;51.676;6.614;2023-07-31T07:17:13;5.75;;;4.35;;
39190;SDS011;24916;51.676;6.614;2023-07-31T07:19:41;6.35;;;3.47;;
39190;SDS011;24916;51.676;6.614;2023-07-31T07:22:07;4.45;;;3.05;;
39190;SDS011;24916;51.676;6.614;2023-07-31T07:24:32;5.47;;;3.15;;
39190;SDS011;24916;51.676;6.614;2023-07-31T07:26:57;9.52;;;3.30;;
39190;SDS011;24916;51.676;6.614;2023-07-31T07:29:23;7.15;;;4.28;;
39190;SDS011;24916;51.676;6.614;2023-07-31T07:31:48;6.50;;;2.65;;
39190;SDS011;24916;51.676;6.614;2023-07-31T07:34:13;3.45;;;2.75;;
39190;SDS011;24916;51.676;6.614;2023-07-31T07:36:38;6.17;;;2.57;;
39190;SDS011;24916;51.676;6.614;2023-07-31T07:39:03;5.40;;;3.30;;
39190;SDS011;24916;51.676;6.614;2023-07-31T07:41:29;9.98;;;2.92;;
39190;SDS011;24916;51.676;6.614;2023-07-31T07:43:54;6.65;;;3.05;;
39190;SDS011;24916;51.676;6.614;2023-07-31T07:46:19;3.80;;;2.47;;
39190;SDS011;24916;51.676;6.614;2023-07-31T07:48:44;3.72;;;2.25;;
39190;SDS011;24916;51.676;6.614;2023-07-31T07:51:09;5.07;;;2.40;;
39190;SDS011;24916;51.676;6.614;2023-07-31T07:53:35;7.07;;;3.97;;
39190;SDS011;24916;51.676;6.614;2023-07-31T07:56:00;6.18;;;2.35;;
39190;SDS011;24916;51.676;6.614;2023-07-31T07:58:25;3.00;;;1.97;;
39190;SDS011;24916;51.676;6.614;2023-07-31T08:00:51;6.05;;;3.45;;
39190;SDS011;24916;51.676;6.614;2023-07-31T08:03:16;3.95;;;2.40;;
39190;SDS011;24916;51.676;6.614;2023-07-31T08:05:42;4.63;;;2.45;;
39190;SDS011;24916;51.676;6.614;2023-07-31T08:08:07;3.13;;;2.17;;
39190;SDS011;24916;51.676;6.614;2023-07-31T08:10:32;3.80;;;2.10;;
39190;SDS011;24916;51.676;6.614;2023-07-31T08:12:58;5.03;;;2.88;;
39190;SDS011;24916;51.676;6.614;2023-07-31T08:15:23;5.93;;;3.50;;
39190;SDS011;24916;51.676;6.614;2023-07-31T08:17:48;3.75;;;2.20;;
39190;SDS011;24916;51.676;6.614;2023-07-31T08:20:13;3.88;;;2.38;;
39190;SDS011;24916;51.676;6.614;2023-07-31T08:22:39;3.53;;;2.15;;
39190;SDS011;24916;51.676;6.614;2023-07-31T08:25:05;3.45;;;2.03;;
39190;SDS011;24916;51.676;6.614;2023-07-31T08:27:31;4.63;;;1.88;;
39190;SDS011;24916;51.676;6.614;2023-07-31T08:29:56;3.33;;;2.17;;
39190;SDS011;24916;51.676;6.614;2023-07-31T08:32:22;4.38;;;2.10;;
39190;SDS011;24916;51.676;6.614;2023-07-31T08:34:47;4.88;;;1.88;;
39190;SDS011;24916;51.676;6.614;2023-07-31T08:37:12;4.35;;;2.17;;
39190;SDS011;24916;51.676;6.614;2023-07-31T08:39:38;4.90;;;2.17;;
39190;SDS011;24916;51.676;6.614;2023-07-31T08:42:07;4.07;;;2.08;;
39190;SDS011;24916;51.676;6.614;2023-07-31T08:44:32;4.15;;;2.33;;
39190;SDS011;24916;51.676;6.614;2023-07-31T08:46:58;6.40;;;2.20;;
39190;SDS011;24916;51.676;6.614;2023-07-31T08:49:23;18.02;;;12.07;;
39190;SDS011;24916;51.676;6.614;2023-07-31T08:51:49;12.00;;;7.47;;
39190;SDS011;24916;51.676;6.614;2023-07-31T08:54:15;7.60;;;5.20;;
39190;SDS011;24916;51.676;6.614;2023-07-31T08:56:40;8.32;;;5.57;;
39190;SDS011;24916;51.676;6.614;2023-07-31T08:59:05;6.03;;;2.40;;
39190;SDS011;24916;51.676;6.614;2023-07-31T09:01:31;3.13;;;2.38;;
39190;SDS011;24916;51.676;6.614;2023-07-31T09:04:01;5.70;;;2.10;;
39190;SDS011;24916;51.676;6.614;2023-07-31T09:06:26;7.05;;;3.00;;
39190;SDS011;24916;51.676;6.614;2023-07-31T09:08:53;3.92;;;2.05;;
39190;SDS011;24916;51.676;6.614;2023-07-31T09:11:18;4.43;;;2.10;;
39190;SDS011;24916;51.676;6.614;2023-07-31T09:13:43;4.40;;;2.00;;
39190;SDS011;24916;51.676;6.614;2023-07-31T09:16:10;3.47;;;1.67;;
39190;SDS011;24916;51.676;6.614;2023-07-31T09:18:52;5.63;;;2.38;;
39190;SDS011;24916;51.676;6.614;2023-07-31T09:21:17;4.80;;;1.58;;
39190;SDS011;24916;51.676;6.614;2023-07-31T09:23:44;4.07;;;1.90;;
39190;SDS011;24916;51.676;6.614;2023-07-31T09:26:10;2.50;;;1.95;;
39190;SDS011;24916;51.676;6.614;2023-07-31T09:28:35;3.85;;;1.95;;
39190;SDS011;24916;51.676;6.614;2023-07-31T09:31:00;4.25;;;1.75;;
39190;SDS011;24916;51.676;6.614;2023-07-31T09:33:26;4.22;;;1.90;;
39190;SDS011;24916;51.676;6.614;2023-07-31T09:35:51;7.00;;;1.50;;
39190;SDS011;24916;51.676;6.614;2023-07-31T09:38:16;4.97;;;1.80;;
39190;SDS011;24916;51.676;6.614;2023-07-31T09:40:48;2.70;;;2.00;;
39190;SDS011;24916;51.676;6.614;2023-07-31T09:43:16;2.88;;;1.75;;
39190;SDS011;24916;51.676;6.614;2023-07-31T09:45:43;3.75;;;2.00;;
39190;SDS011;24916;51.676;6.614;2023-07-31T09:48:09;3.67;;;1.83;;
39190;SDS011;24916;51.676;6.614;2023-07-31T09:50:36;3.20;;;1.65;;
39190;SDS011;24916;51.676;6.614;2023-07-31T09:53:01;4.60;;;2.08;;
39190;SDS011;24916;51.676;6.614;2023-07-31T09:55:27;5.20;;;1.90;;
39190;SDS011;24916;51.676;6.614;2023-07-31T09:57:52;2.97;;;1.90;;
39190;SDS011;24916;51.676;6.614;2023-07-31T10:00:20;3.75;;;2.10;;
39190;SDS011;24916;51.676;6.614;2023-07-31T10:02:47;4.72;;;2.13;;
39190;SDS011;24916;51.676;6.614;2023-07-31T10:05:16;4.10;;;1.98;;
39190;SDS011;24916;51.676;6.614;2023-07-31T10:07:42;5.18;;;2.55;;
39190;SDS011;24916;51.676;6.614;2023-07-31T10:10:08;2.85;;;1.90;;
39190;SDS011;24916;51.676;6.614;2023-07-31T10:12:36;4.93;;;2.92;;
39190;SDS011;24916;51.676;6.614;2023-07-31T10:15:02;5.30;;;3.65;;
39190;SDS011;24916;51.676;6.614;2023-07-31T10:17:27;4.68;;;2.92;;
39190;SDS011;24916;51.676;6.614;2023-07-31T10:19:53;6.00;;;2.65;;
39190;SDS011;24916;51.676;6.614;2023-07-31T10:22:19;7.22;;;2.25;;
39190;SDS011;24916;51.676;6.614;2023-07-31T10:24:45;4.65;;;2.30;;
39190;SDS011;24916;51.676;6.614;2023-07-31T10:27:10;4.68;;;2.40;;
39190;SDS011;24916;51.676;6.614;2023-07-31T10:29:37;5.25;;;3.22;;
39190;SDS011;24916;51.676;6.614;2023-07-31T10:32:02;6.00;;;3.92;;
39190;SDS011;24916;51.676;6.614;2023-07-31T10:34:31;7.97;;;3.38;;
39190;SDS011;24916;51.676;6.614;2023-07-31T10:39:41;4.75;;;2.97;;
39190;SDS011;24916;51.676;6.614;2023-07-31T10:42:10;8.60;;;6.10;;
39190;SDS011;24916;51.676;6.614;2023-07-31T10:44:35;9.00;;;4.72;;
39190;SDS011;24916;51.676;6.614;2023-07-31T10:47:00;6.95;;;3.80;;
39190;SDS011;24916;51.676;6.614;2023-07-31T10:49:28;11.32;;;3.63;;
39190;SDS011;24916;51.676;6.614;2023-07-31T10:51:55;4.88;;;2.78;;
39190;SDS011;24916;51.676;6.614;2023-07-31T10:54:20;5.28;;;2.88;;
39190;SDS011;24916;51.676;6.614;2023-07-31T10:56:46;5.30;;;2.80;;
39190;SDS011;24916;51.676;6.614;2023-07-31T10:59:12;7.60;;;4.40;;
39190;SDS011;24916;51.676;6.614;2023-07-31T11:01:51;11.00;;;3.80;;
39190;SDS011;24916;51.676;6.614;2023-07-31T11:04:21;9.23;;;3.28;;
39190;SDS011;24916;51.676;6.614;2023-07-31T11:06:55;6.82;;;3.25;;
39190;SDS011;24916;51.676;6.614;2023-07-31T11:09:20;6.78;;;3.75;;
39190;SDS011;24916;51.676;6.614;2023-07-31T11:11:45;6.82;;;3.17;;
39190;SDS011;24916;51.676;6.614;2023-07-31T11:14:11;7.45;;;2.88;;
39190;SDS011;24916;51.676;6.614;2023-07-31T11:16:36;6.25;;;3.10;;
39190;SDS011;24916;51.676;6.614;2023-07-31T11:19:01;6.57;;;3.43;;
39190;SDS011;24916;51.676;6.614;2023-07-31T11:21:27;12.20;;;10.13;;
39190;SDS011;24916;51.676;6.614;2023-07-31T11:23:53;5.28;;;3.10;;
39190;SDS011;24916;51.676;6.614;2023-07-31T11:26:20;6.82;;;2.50;;
39190;SDS011;24916;51.676;6.614;2023-07-31T11:28:46;3.92;;;2.65;;
39190;SDS011;24916;51.676;6.614;2023-07-31T11:31:12;7.28;;;2.70;;
39190;SDS011;24916;51.676;6.614;2023-07-31T11:33:37;6.68;;;2.78;;
39190;SDS011;24916;51.676;6.614;2023-07-31T11:36:02;6.13;;;3.35;;
39190;SDS011;24916;51.676;6.614;2023-07-31T11:38:34;10.13;;;6.05;;
39190;SDS011;24916;51.676;6.614;2023-07-31T11:41:00;13.82;;;10.27;;
39190;SDS011;24916;51.676;6.614;2023-07-31T11:43:27;6.90;;;3.60;;
39190;SDS011;24916;51.676;6.614;2023-07-31T11:45:56;4.22;;;2.20;;
39190;SDS011;24916;51.676;6.614;2023-07-31T11:48:23;4.47;;;2.30;;
39190;SDS011;24916;51.676;6.614;2023-07-31T11:50:49;6.95;;;2.80;;
39190;SDS011;24916;51.676;6.614;2023-07-31T11:53:15;4.35;;;2.58;;
39190;SDS011;24916;51.676;6.614;2023-07-31T11:55:42;4.95;;;3.20;;
39190;SDS011;24916;51.676;6.614;2023-07-31T11:58:07;5.18;;;2.83;;
39190;SDS011;24916;51.676;6.614;2023-07-31T12:00:33;4.88;;;2.20;;
39190;SDS011;24916;51.676;6.614;2023-07-31T12:02:58;3.85;;;2.17;;
39190;SDS011;24916;51.676;6.614;2023-07-31T12:05:24;3.38;;;2.58;;
39190;SDS011;24916;51.676;6.614;2023-07-31T12:07:50;3.60;;;2.70;;
39190;SDS011;24916;51.676;6.614;2023-07-31T12:10:29;4.13;;;2.50;;
39190;SDS011;24916;51.676;6.614;2023-07-31T12:12:58;6.00;;;2.45;;
39190;SDS011;24916;51.676;6.614;2023-07-31T12:17:57;5.53;;;2.33;;
39190;SDS011;24916;51.676;6.614;2023-07-31T12:20:22;3.25;;;1.70;;
39190;SDS011;24916;51.676;6.614;2023-07-31T12:22:47;3.60;;;2.40;;
39190;SDS011;24916;51.676;6.614;2023-07-31T12:25:15;4.97;;;2.30;;
39190;SDS011;24916;51.676;6.614;2023-07-31T12:27:43;3.15;;;2.35;;
39190;SDS011;24916;51.676;6.614;2023-07-31T12:30:25;4.20;;;1.83;;
39190;SDS011;24916;51.676;6.614;2023-07-31T12:32:51;6.68;;;2.42;;
39190;SDS011;24916;51.676;6.614;2023-07-31T12:35:16;3.28;;;2.35;;
39190;SDS011;24916;51.676;6.614;2023-07-31T12:37:41;5.20;;;2.70;;
39190;SDS011;24916;51.676;6.614;2023-07-31T12:40:06;5.70;;;3.13;;
39190;SDS011;24916;51.676;6.614;2023-07-31T12:42:32;8.75;;;5.22;;
39190;SDS011;24916;51.676;6.614;2023-07-31T12:44:57;4.90;;;2.35;;
39190;SDS011;24916;51.676;6.614;2023-07-31T12:47:23;4.80;;;2.58;;
39190;SDS011;24916;51.676;6.614;2023-07-31T12:49:48;4.93;;;2.67;;
39190;SDS011;24916;51.676;6.614;2023-07-31T12:52:13;4.45;;;2.78;;
39190;SDS011;24916;51.676;6.614;2023-07-31T12:54:39;5.23;;;3.80;;
39190;SDS011;24916;51.676;6.614;2023-07-31T12:57:04;5.18;;;2.10;;
39190;SDS011;24916;51.676;6.614;2023-07-31T12:59:29;2.80;;;2.03;;
39190;SDS011;24916;51.676;6.614;2023-07-31T13:01:54;3.13;;;2.03;;
39190;SDS011;24916;51.676;6.614;2023-07-31T13:04:20;5.23;;;1.90;;
39190;SDS011;24916;51.676;6.614;2023-07-31T13:06:45;4.25;;;1.92;;
39190;SDS011;24916;51.676;6.614;2023-07-31T13:09:10;3.35;;;2.20;;
39190;SDS011;24916;51.676;6.614;2023-07-31T13:11:36;3.80;;;2.58;;
39190;SDS011;24916;51.676;6.614;2023-07-31T13:14:01;3.03;;;2.33;;
39190;SDS011;24916;51.676;6.614;2023-07-31T13:16:26;9.23;;;2.35;;
39190;SDS011;24916;51.676;6.614;2023-07-31T13:18:52;6.18;;;3.33;;
39190;SDS011;24916;51.676;6.614;2023-07-31T13:21:18;6.82;;;2.55;;
39190;SDS011;24916;51.676;6.614;2023-07-31T13:23:43;6.70;;;2.42;;
39190;SDS011;24916;51.676;6.614;2023-07-31T13:26:08;5.03;;;2.90;;
39190;SDS011;24916;51.676;6.614;2023-07-31T13:28:34;5.53;;;1.90;;
39190;SDS011;24916;51.676;6.614;2023-07-31T13:30:59;3.28;;;2.20;;
39190;SDS011;24916;51.676;6.614;2023-07-31T13:33:24;6.13;;;2.38;;
39190;SDS011;24916;51.676;6.614;2023-07-31T13:35:49;5.70;;;3.05;;
39190;SDS011;24916;51.676;6.614;2023-07-31T13:38:15;5.47;;;2.58;;
39190;SDS011;24916;51.676;6.614;2023-07-31T13:40:40;5.80;;;2.77;;
39190;SDS011;24916;51.676;6.614;2023-07-31T13:43:05;4.68;;;2.35;;
39190;SDS011;24916;51.676;6.614;2023-07-31T13:45:30;6.90;;;3.03;;
39190;SDS011;24916;51.676;6.614;2023-07-31T13:47:56;5.13;;;3.13;;
39190;SDS011;24916;51.676;6.614;2023-07-31T13:50:21;5.53;;;2.78;;
39190;SDS011;24916;51.676;6.614;2023-07-31T13:52:47;4.88;;;2.90;;
39190;SDS011;24916;51.676;6.614;2023-07-31T13:55:12;5.15;;;3.35;;
39190;SDS011;24916;51.676;6.614;2023-07-31T13:57:38;5.07;;;2.65;;
39190;SDS011;24916;51.676;6.614;2023-07-31T14:00:03;6.07;;;3.13;;
39190;SDS011;24916;51.676;6.614;2023-07-31T14:02:29;6.07;;;3.38;;
39190;SDS011;24916;51.676;6.614;2023-07-31T14:04:54;7.57;;;3.55;;
39190;SDS011;24916;51.676;6.614;2023-07-31T14:07:19;6.13;;;3.40;;
39190;SDS011;24916;51.676;6.614;2023-07-31T14:09:45;9.57;;;3.75;;
39190;SDS011;24916;51.676;6.614;2023-07-31T14:12:10;6.70;;;3.83;;
39190;SDS011;24916;51.676;6.614;2023-07-31T14:14:35;9.35;;;3.70;;
39190;SDS011;24916;51.676;6.614;2023-07-31T14:17:01;7.63;;;3.70;;
39190;SDS011;24916;51.676;6.614;2023-07-31T14:19:26;6.63;;;3.30;;
39190;SDS011;24916;51.676;6.614;2023-07-31T14:21:51;9.82;;;3.58;;
39190;SDS011;24916;51.676;6.614;2023-07-31T14:24:17;6.20;;;4.28;;
39190;SDS011;24916;51.676;6.614;2023-07-31T14:26:42;9.73;;;7.63;;
39190;SDS011;24916;51.676;6.614;2023-07-31T14:29:07;8.00;;;4.10;;
39190;SDS011;24916;51.676;6.614;2023-07-31T14:31:32;11.83;;;4.00;;
39190;SDS011;24916;51.676;6.614;2023-07-31T14:33:57;12.88;;;3.97;;
39190;SDS011;24916;51.676;6.614;2023-07-31T14:36:23;6.40;;;3.92;;
39190;SDS011;24916;51.676;6.614;2023-07-31T14:38:48;8.03;;;3.47;;
39190;SDS011;24916;51.676;6.614;2023-07-31T14:41:13;6.70;;;3.53;;
39190;SDS011;24916;51.676;6.614;2023-07-31T14:43:38;6.22;;;3.88;;
39190;SDS011;24916;51.676;6.614;2023-07-31T14:46:04;6.20;;;3.40;;